createdAt,value
2023-01-21T00:05:02.355Z,35.10
2023-01-21T00:07:30.305Z,38.20
2023-01-21T00:09:58.022Z,33.30
2023-01-21T00:12:25.744Z,33.70
2023-01-21T00:14:53.611Z,30.20
2023-01-21T00:17:21.507Z,33.90
2023-01-21T00:19:49.449Z,38.50
2023-01-21T00:22:17.238Z,33.50
2023-01-21T00:24:45.041Z,30.80
2023-01-21T00:27:12.831Z,34.60
2023-01-21T00:29:40.613Z,33.80
2023-01-21T00:32:08.455Z,31.20
2023-01-21T00:34:36.334Z,32.60
2023-01-21T00:37:04.411Z,27.40
2023-01-21T00:39:32.458Z,32.40
2023-01-21T00:42:00.390Z,29.70
2023-01-21T00:44:29.014Z,31.70
2023-01-21T00:46:58.795Z,30.50
2023-01-21T00:49:26.686Z,37.10
2023-01-21T00:51:54.637Z,32.10
2023-01-21T00:54:25.148Z,28.20
2023-01-21T00:56:52.957Z,30.80
2023-01-21T00:59:21.141Z,30.40
2023-01-21T01:01:49.216Z,29.60
2023-01-21T01:04:17.179Z,30.50
2023-01-21T01:06:45.081Z,28.60
2023-01-21T01:09:13.207Z,32.40
2023-01-21T01:11:41.393Z,30.30
2023-01-21T01:14:09.355Z,28.60
2023-01-21T01:16:37.214Z,33.70
2023-01-21T01:19:05.097Z,32.40
2023-01-21T01:21:32.990Z,27.50
2023-01-21T01:24:03.334Z,28.10
2023-01-21T01:26:31.702Z,34.20
2023-01-21T01:29:00.602Z,28.10
2023-01-21T01:31:28.465Z,31.90
2023-01-21T01:33:56.922Z,29.40
2023-01-21T01:36:25.085Z,30.90
2023-01-21T01:38:53.942Z,32.00
2023-01-21T01:41:24.154Z,26.10
2023-01-21T01:43:56.404Z,31.00
2023-01-21T01:46:26.094Z,32.70
2023-01-21T01:49:06.648Z,29.00
2023-01-21T01:51:57.906Z,31.30
2023-01-21T01:54:30.378Z,33.70
2023-01-21T01:57:00.346Z,32.30
2023-01-21T01:59:29.355Z,33.80
2023-01-21T02:01:58.786Z,34.00
2023-01-21T02:04:29.982Z,28.70
2023-01-21T02:06:58.411Z,31.30
2023-01-21T02:09:30.049Z,33.70
2023-01-21T02:11:59.702Z,30.60
2023-01-21T02:14:28.500Z,27.40
2023-01-21T02:16:59.272Z,27.80
2023-01-21T02:19:39.194Z,32.30
2023-01-21T02:22:09.821Z,32.30
2023-01-21T02:24:49.924Z,35.70
2023-01-21T02:27:30.807Z,32.40
2023-01-21T02:30:14.718Z,38.00
2023-01-21T02:32:51.924Z,31.10
2023-01-21T02:35:28.681Z,34.00
2023-01-21T02:38:07.153Z,34.80
2023-01-21T02:40:41.311Z,32.70
2023-01-21T02:43:16.649Z,34.20
2023-01-21T02:45:49.530Z,30.40
2023-01-21T02:48:21.187Z,30.00
2023-01-21T02:50:53.541Z,31.20
2023-01-21T02:53:28.436Z,34.70
2023-01-21T02:56:00.978Z,32.30
2023-01-21T02:58:31.304Z,29.90
2023-01-21T03:01:18.171Z,29.10
2023-01-21T03:03:54.463Z,30.80
2023-01-21T03:06:31.443Z,29.10
2023-01-21T03:09:06.886Z,29.80
2023-01-21T03:11:34.781Z,32.60
2023-01-21T03:14:50.790Z,26.70
2023-01-21T03:17:37.083Z,29.50
2023-01-21T03:20:04.937Z,31.80
2023-01-21T03:22:34.798Z,27.50
2023-01-21T03:25:04.446Z,30.90
2023-01-21T03:27:33.251Z,28.40
2023-01-21T03:30:05.769Z,27.30
2023-01-21T03:32:34.507Z,29.30
2023-01-21T03:35:03.487Z,28.00
2023-01-21T03:37:38.999Z,27.40
2023-01-21T03:40:19.276Z,30.00
2023-01-21T03:42:50.524Z,28.70
2023-01-21T03:45:22.864Z,26.20
2023-01-21T03:47:54.633Z,26.50
2023-01-21T03:50:27.841Z,23.00
2023-01-21T03:52:55.629Z,25.60
2023-01-21T03:55:23.462Z,29.60
2023-01-21T03:57:51.403Z,25.50
2023-01-21T04:00:19.494Z,27.00
2023-01-21T04:02:47.512Z,26.70
2023-01-21T04:05:15.656Z,26.40
2023-01-21T04:07:43.501Z,26.70
2023-01-21T04:10:11.671Z,26.30
2023-01-21T04:12:40.752Z,27.00
2023-01-21T04:15:08.995Z,27.90
2023-01-21T04:17:36.843Z,28.10
2023-01-21T04:20:05.427Z,23.70
2023-01-21T04:22:33.289Z,23.70
2023-01-21T04:25:01.183Z,25.80
2023-01-21T04:27:28.981Z,23.70
2023-01-21T04:29:56.821Z,24.60
2023-01-21T04:32:24.662Z,24.40
2023-01-21T04:34:52.566Z,23.30
2023-01-21T04:37:20.369Z,24.60
2023-01-21T04:39:48.257Z,23.80
2023-01-21T04:42:16.066Z,23.60
2023-01-21T04:44:45.088Z,24.70
2023-01-21T04:47:12.975Z,21.50
2023-01-21T04:49:40.871Z,23.70
2023-01-21T04:52:09.419Z,21.20
2023-01-21T04:54:37.182Z,19.80
2023-01-21T04:57:04.962Z,21.50
2023-01-21T04:59:32.828Z,19.00
2023-01-21T05:02:00.874Z,22.70
2023-01-21T05:04:28.740Z,22.10
2023-01-21T05:06:56.685Z,20.80
2023-01-21T05:09:24.481Z,21.80
2023-01-21T05:11:52.358Z,18.90
2023-01-21T05:14:20.122Z,21.60
2023-01-21T05:16:48.115Z,20.00
2023-01-21T05:19:16.268Z,23.10
2023-01-21T05:21:44.006Z,22.60
2023-01-21T05:24:11.754Z,20.40
2023-01-21T05:26:39.458Z,22.80
2023-01-21T05:29:07.322Z,21.70
2023-01-21T05:31:35.139Z,26.30
2023-01-21T05:34:03.420Z,22.20
2023-01-21T05:36:31.242Z,23.00
2023-01-21T05:38:59.091Z,21.90
2023-01-21T05:41:26.924Z,23.40
2023-01-21T05:43:54.774Z,31.70
2023-01-21T05:46:22.679Z,24.70
2023-01-21T05:48:50.680Z,23.00
2023-01-21T05:51:18.917Z,21.40
2023-01-21T05:53:46.841Z,23.20
2023-01-21T05:56:14.791Z,22.40
2023-01-21T05:58:44.637Z,22.00
2023-01-21T06:01:12.404Z,24.50
2023-01-21T06:03:40.446Z,22.30
2023-01-21T06:06:08.359Z,23.30
2023-01-21T06:08:36.206Z,21.10
2023-01-21T06:11:04.087Z,18.40
2023-01-21T06:13:31.963Z,22.20
2023-01-21T06:15:59.857Z,22.90
2023-01-21T06:18:27.787Z,20.50
2023-01-21T06:21:01.559Z,19.40
2023-01-21T06:23:29.535Z,21.90
2023-01-21T06:26:01.148Z,23.00
2023-01-21T06:28:29.622Z,19.90
2023-01-21T06:30:57.601Z,17.60
2023-01-21T06:33:25.547Z,20.30
2023-01-21T06:35:53.405Z,18.80
2023-01-21T06:38:21.346Z,19.80
2023-01-21T06:40:49.125Z,21.10
2023-01-21T06:43:17.074Z,19.00
2023-01-21T06:45:45.130Z,18.20
2023-01-21T06:48:13.042Z,19.00
2023-01-21T06:51:40.877Z,19.00
2023-01-21T06:54:07.240Z,24.20
2023-01-21T06:56:33.671Z,20.20
2023-01-21T06:59:00.167Z,16.90
2023-01-21T07:01:26.608Z,16.10
2023-01-21T07:03:53.096Z,19.60
2023-01-21T07:06:21.516Z,18.00
2023-01-21T07:08:48.091Z,19.60
2023-01-21T07:11:14.504Z,15.40
2023-01-21T07:13:40.952Z,15.90
2023-01-21T07:16:08.125Z,18.10
2023-01-21T07:18:35.093Z,23.60
2023-01-21T07:21:01.707Z,22.80
2023-01-21T07:23:29.717Z,20.00
2023-01-21T07:25:56.313Z,15.60
2023-01-21T07:28:22.941Z,16.40
2023-01-21T07:30:49.537Z,15.60
2023-01-21T07:33:16.130Z,22.60
2023-01-21T07:35:42.538Z,15.90
2023-01-21T07:38:09.134Z,19.00
2023-01-21T07:40:35.579Z,18.60
2023-01-21T07:43:02.313Z,16.90
2023-01-21T07:45:28.967Z,17.70
2023-01-21T07:47:55.637Z,18.10
2023-01-21T07:50:22.079Z,14.90
2023-01-21T07:52:48.637Z,14.50
2023-01-21T07:55:15.453Z,19.20
2023-01-21T07:57:42.138Z,18.90
2023-01-21T08:00:09.054Z,16.70
2023-01-21T08:02:35.617Z,19.80
2023-01-21T08:05:02.533Z,22.00
2023-01-21T08:07:28.996Z,17.50
2023-01-21T08:09:55.705Z,14.00
2023-01-21T08:12:22.252Z,14.40
2023-01-21T08:14:48.781Z,16.10
2023-01-21T08:17:15.260Z,17.70
2023-01-21T08:19:41.764Z,17.90
2023-01-21T08:22:08.199Z,15.70
2023-01-21T08:24:34.641Z,12.40
2023-01-21T08:27:01.386Z,15.40
2023-01-21T08:29:27.973Z,13.20
2023-01-21T08:31:54.660Z,15.70
2023-01-21T08:34:21.386Z,14.60
2023-01-21T08:36:48.033Z,12.90
2023-01-21T08:39:17.187Z,12.30
2023-01-21T08:41:44.284Z,12.80
2023-01-21T08:44:11.456Z,14.50
2023-01-21T08:46:38.031Z,14.50
2023-01-21T08:49:04.607Z,16.00
2023-01-21T08:51:31.129Z,12.20
2023-01-21T08:53:58.072Z,14.50
2023-01-21T08:56:25.140Z,17.60
2023-01-21T08:58:58.213Z,11.90
2023-01-21T09:01:25.198Z,10.30
2023-01-21T09:03:56.473Z,17.70
2023-01-21T09:06:23.984Z,11.90
2023-01-21T09:08:50.695Z,12.30
2023-01-21T09:11:17.513Z,12.40
2023-01-21T09:13:47.009Z,12.40
2023-01-21T09:16:20.068Z,11.50
2023-01-21T09:18:47.109Z,12.10
2023-01-21T09:21:13.943Z,11.40
2023-01-21T09:23:40.548Z,11.40
2023-01-21T09:26:15.699Z,12.40
2023-01-21T09:28:43.370Z,10.80
2023-01-21T09:31:11.521Z,10.00
2023-01-21T09:33:39.188Z,9.80
2023-01-21T09:36:07.035Z,11.80
2023-01-21T09:38:34.105Z,13.90
2023-01-21T09:41:12.693Z,10.20
2023-01-21T09:43:42.107Z,12.80
2023-01-21T09:46:13.611Z,10.80
2023-01-21T09:48:42.132Z,13.90
2023-01-21T09:51:31.955Z,11.60
2023-01-21T09:54:03.064Z,9.30
2023-01-21T09:56:36.465Z,8.60
2023-01-21T09:59:07.829Z,11.90
2023-01-21T10:01:35.420Z,10.30
2023-01-21T10:04:01.994Z,8.30
2023-01-21T10:06:50.898Z,13.60
2023-01-21T10:09:32.457Z,12.60
2023-01-21T10:12:06.519Z,11.60
2023-01-21T10:14:53.305Z,10.60
2023-01-21T10:17:36.431Z,9.80
2023-01-21T10:20:15.023Z,10.90
2023-01-21T10:22:43.811Z,11.50
2023-01-21T10:25:24.091Z,8.20
2023-01-21T10:27:50.910Z,8.60
2023-01-21T10:30:17.271Z,9.70
2023-01-21T10:32:43.902Z,8.10
2023-01-21T10:35:20.376Z,8.90
2023-01-21T10:37:49.761Z,9.50
2023-01-21T10:40:18.365Z,11.20
2023-01-21T10:42:50.445Z,7.80
2023-01-21T10:45:38.618Z,8.00
2023-01-21T10:48:16.887Z,7.20
2023-01-21T10:51:02.169Z,10.40
2023-01-21T10:53:28.677Z,8.80
2023-01-21T10:55:59.992Z,12.60
2023-01-21T10:58:30.111Z,10.10
2023-01-21T11:00:58.574Z,10.40
2023-01-21T11:03:46.090Z,12.70
2023-01-21T11:06:13.535Z,14.70
2023-01-21T11:08:42.552Z,8.60
2023-01-21T11:20:57.745Z,9.20
2023-01-21T11:23:34.835Z,10.70
2023-01-21T11:26:04.361Z,15.50
2023-01-21T11:28:33.166Z,14.40
2023-01-21T11:31:11.376Z,10.50
2023-01-21T11:33:39.826Z,10.40
2023-01-21T11:36:15.274Z,10.80
2023-01-21T11:38:44.370Z,9.80
2023-01-21T11:41:12.123Z,13.00
2023-01-21T11:43:41.258Z,12.50
2023-01-21T11:46:28.847Z,11.60
2023-01-21T11:49:17.300Z,12.00
2023-01-21T11:51:46.174Z,19.10
2023-01-21T11:54:18.512Z,13.50
2023-01-21T11:56:57.202Z,9.00
2023-01-21T11:59:25.062Z,9.30
2023-01-21T12:01:58.025Z,7.20
2023-01-21T12:04:26.694Z,8.40
2023-01-21T12:06:58.218Z,6.80
2023-01-21T12:09:28.251Z,6.70
2023-01-21T12:12:15.135Z,9.40
2023-01-21T12:14:52.472Z,8.10
2023-01-21T12:17:40.155Z,7.80
2023-01-21T12:20:08.732Z,9.70
2023-01-21T12:22:39.937Z,12.00
2023-01-21T12:25:08.052Z,11.80
2023-01-21T12:27:56.316Z,10.70
2023-01-21T12:30:35.341Z,11.10
2023-01-21T12:33:15.633Z,10.20
2023-01-21T12:35:50.859Z,11.40
2023-01-21T12:38:31.024Z,10.20
2023-01-21T12:41:05.373Z,11.30
2023-01-21T12:43:36.886Z,9.10
2023-01-21T12:46:11.159Z,10.20
2023-01-21T12:48:45.647Z,8.60
2023-01-21T12:51:17.917Z,8.60
2023-01-21T12:53:49.149Z,13.90
2023-01-21T12:56:20.030Z,12.20
2023-01-21T12:59:14.076Z,9.70
2023-01-21T13:01:51.699Z,12.90
2023-01-21T13:04:22.667Z,12.20
2023-01-21T13:06:59.172Z,13.80
2023-01-21T13:09:30.440Z,12.40
2023-01-21T13:12:20.111Z,12.40
2023-01-21T13:14:55.923Z,12.80
2023-01-21T13:17:28.235Z,11.60
2023-01-21T13:19:56.493Z,11.80
2023-01-21T13:22:40.045Z,11.50
2023-01-21T13:25:33.757Z,10.50
2023-01-21T13:28:05.462Z,10.70
2023-01-21T13:30:42.156Z,14.20
2023-01-21T13:33:18.089Z,13.20
2023-01-21T13:36:25.079Z,9.60
2023-01-21T13:38:56.455Z,10.70
2023-01-21T13:41:43.743Z,9.90
2023-01-21T13:44:31.286Z,10.70
2023-01-21T13:47:06.534Z,8.60
2023-01-21T13:49:53.526Z,10.30
2023-01-21T13:52:21.743Z,10.50
2023-01-21T13:55:08.617Z,10.00
2023-01-21T13:57:48.171Z,10.00
2023-01-21T14:00:31.087Z,8.80
2023-01-21T14:03:12.493Z,11.60
2023-01-21T14:05:45.302Z,17.70
2023-01-21T14:08:39.418Z,22.90
2023-01-21T14:11:12.034Z,16.90
2023-01-21T14:13:40.241Z,12.80
2023-01-21T14:16:11.085Z,8.90
2023-01-21T14:18:48.300Z,13.20
2023-01-21T14:21:25.496Z,10.70
2023-01-21T14:24:08.502Z,13.10
2023-01-21T14:26:48.462Z,9.40
2023-01-21T14:29:47.080Z,8.90
2023-01-21T14:32:30.808Z,9.30
2023-01-21T14:35:14.318Z,8.20
2023-01-21T14:37:54.949Z,7.10
2023-01-21T14:40:28.343Z,12.10
2023-01-21T14:42:58.136Z,11.00
2023-01-21T14:45:57.231Z,9.10
2023-01-21T14:48:47.545Z,7.80
2023-01-21T14:51:21.281Z,9.40
2023-01-21T14:53:50.793Z,9.00
2023-01-21T14:56:21.688Z,9.60
2023-01-21T14:58:51.396Z,8.90
2023-01-21T15:01:25.154Z,9.00
2023-01-21T15:03:53.255Z,10.30
2023-01-21T15:06:23.337Z,11.40
2023-01-21T15:08:53.511Z,11.20
2023-01-21T15:11:23.412Z,9.20
2023-01-21T15:14:11.278Z,13.40
2023-01-21T15:16:45.055Z,20.10
2023-01-21T15:19:14.909Z,19.10
2023-01-21T15:21:45.745Z,11.60
2023-01-21T15:24:16.693Z,14.50
2023-01-21T15:27:10.778Z,13.20
2023-01-21T15:29:39.338Z,14.70
2023-01-21T15:32:27.448Z,18.50
2023-01-21T15:34:58.281Z,11.60
2023-01-21T15:37:27.943Z,13.80
2023-01-21T15:40:00.864Z,13.80
2023-01-21T15:42:35.024Z,9.10
2023-01-21T15:45:02.855Z,9.20
2023-01-21T15:47:39.189Z,9.30
2023-01-21T15:50:21.346Z,9.00
2023-01-21T15:53:07.975Z,15.00
2023-01-21T15:55:41.601Z,12.30
2023-01-21T15:58:15.364Z,11.50
2023-01-21T16:00:43.189Z,9.30
2023-01-21T16:03:20.392Z,10.30
2023-01-21T16:06:07.687Z,12.30
2023-01-21T16:08:55.787Z,9.60
2023-01-21T16:11:47.527Z,14.10
2023-01-21T16:14:41.721Z,17.40
2023-01-21T16:17:27.398Z,17.10
2023-01-21T16:19:57.065Z,16.10
2023-01-21T16:22:27.405Z,19.30
2023-01-21T16:25:25.780Z,17.80
2023-01-21T16:27:59.324Z,18.90
2023-01-21T16:30:32.254Z,18.90
2023-01-21T16:33:16.461Z,17.60
2023-01-21T16:35:56.179Z,17.80
2023-01-21T16:38:26.534Z,19.30
2023-01-21T16:41:06.852Z,18.10
2023-01-21T16:43:36.572Z,17.60
2023-01-21T16:46:05.830Z,13.60
2023-01-21T16:48:34.546Z,13.90
2023-01-21T16:51:05.746Z,13.50
2023-01-21T16:53:34.421Z,14.10
2023-01-21T16:56:23.342Z,17.50
2023-01-21T16:58:57.811Z,13.70
2023-01-21T17:01:26.929Z,10.10
2023-01-21T17:03:55.804Z,10.70
2023-01-21T17:06:28.254Z,13.00
2023-01-21T17:08:58.501Z,17.30
2023-01-21T17:11:27.223Z,16.00
2023-01-21T17:13:55.144Z,11.20
2023-01-21T17:16:25.192Z,14.00
2023-01-21T17:18:59.588Z,13.50
2023-01-21T17:21:38.597Z,14.10
2023-01-21T17:24:15.197Z,16.60
2023-01-21T17:26:45.115Z,13.50
2023-01-21T17:29:18.903Z,14.70
2023-01-21T17:31:54.922Z,14.80
2023-01-21T17:34:33.792Z,14.70
2023-01-21T17:37:02.028Z,13.70
2023-01-21T17:39:50.437Z,12.00
2023-01-21T17:42:23.385Z,10.10
2023-01-21T17:44:55.736Z,19.00
2023-01-21T17:47:29.229Z,16.60
2023-01-21T17:50:00.937Z,14.00
2023-01-21T17:52:29.501Z,12.30
2023-01-21T17:55:12.702Z,12.20
2023-01-21T17:57:40.529Z,12.70
2023-01-21T18:00:27.248Z,12.10
2023-01-21T18:02:55.619Z,13.50
2023-01-21T18:05:33.791Z,13.80
2023-01-21T18:08:06.870Z,13.20
2023-01-21T18:10:38.753Z,14.40
2023-01-21T18:13:07.626Z,15.40
2023-01-21T18:15:36.708Z,20.30
2023-01-21T18:18:05.407Z,13.90
2023-01-21T18:20:35.048Z,17.60
2023-01-21T18:23:07.053Z,13.60
2023-01-21T18:25:54.629Z,21.70
2023-01-21T18:28:27.638Z,29.40
2023-01-21T18:30:57.763Z,16.00
2023-01-21T18:33:26.648Z,13.00
2023-01-21T18:35:55.784Z,16.80
2023-01-21T18:38:32.608Z,18.50
2023-01-21T18:41:02.656Z,12.40
2023-01-21T18:43:32.620Z,12.60
2023-01-21T18:46:01.316Z,14.60
2023-01-21T18:48:31.165Z,16.90
2023-01-21T18:51:00.025Z,11.50
2023-01-21T18:53:28.405Z,13.00
2023-01-21T18:55:57.070Z,14.00
2023-01-21T18:58:25.847Z,19.00
2023-01-21T19:00:54.373Z,15.00
2023-01-21T19:03:23.430Z,13.10
2023-01-21T19:05:52.639Z,17.30
2023-01-21T19:08:25.522Z,13.60
2023-01-21T19:10:54.963Z,14.80
2023-01-21T19:13:24.920Z,15.50
2023-01-21T19:15:53.789Z,16.30
2023-01-21T19:18:22.801Z,20.00
2023-01-21T19:20:51.809Z,17.50
2023-01-21T19:23:20.772Z,17.50
2023-01-21T19:25:56.567Z,17.40
2023-01-21T19:28:27.082Z,17.20
2023-01-21T19:30:56.250Z,16.70
2023-01-21T19:33:27.094Z,18.30
2023-01-21T19:36:16.632Z,17.50
2023-01-21T19:38:48.564Z,14.30
2023-01-21T19:41:17.226Z,12.70
2023-01-21T19:43:46.430Z,11.90
2023-01-21T19:46:17.873Z,12.40
2023-01-21T19:48:50.528Z,14.40
2023-01-21T19:51:19.393Z,13.60
2023-01-21T19:53:48.796Z,17.90
2023-01-21T19:56:20.955Z,15.10
2023-01-21T19:58:49.720Z,14.80
2023-01-21T20:01:18.501Z,17.30
2023-01-21T20:03:59.245Z,17.30
2023-01-21T20:06:33.693Z,15.20
2023-01-21T20:09:02.472Z,17.00
2023-01-21T20:11:31.388Z,15.90
2023-01-21T20:14:00.186Z,18.80
2023-01-21T20:16:31.380Z,14.30
2023-01-21T20:19:02.453Z,16.70
2023-01-21T20:21:31.354Z,14.90
2023-01-21T20:24:02.411Z,15.00
2023-01-21T20:26:31.768Z,14.40
2023-01-21T20:29:04.166Z,13.70
2023-01-21T20:31:42.278Z,12.50
2023-01-21T20:34:12.313Z,13.40
2023-01-21T20:36:41.703Z,15.50
2023-01-21T20:39:11.196Z,19.20
2023-01-21T20:41:41.393Z,12.00
2023-01-21T20:44:09.977Z,11.70
2023-01-21T20:46:39.039Z,13.20
2023-01-21T20:49:10.988Z,19.80
2023-01-21T20:51:40.042Z,16.80
2023-01-21T20:54:08.828Z,11.30
2023-01-21T20:56:38.752Z,14.40
2023-01-21T20:59:09.697Z,13.20
2023-01-21T21:01:39.639Z,13.20
2023-01-21T21:04:08.931Z,13.90
2023-01-21T21:06:39.756Z,14.70
2023-01-21T21:09:11.919Z,9.90
2023-01-21T21:11:40.695Z,9.30
2023-01-21T21:14:09.595Z,10.50
2023-01-21T21:16:38.290Z,9.80
2023-01-21T21:19:06.982Z,11.20
2023-01-21T21:21:42.626Z,10.10
2023-01-21T21:24:12.348Z,8.90
2023-01-21T21:26:41.045Z,9.30
2023-01-21T21:29:16.705Z,9.30
2023-01-21T21:31:45.591Z,11.30
2023-01-21T21:34:14.013Z,9.20
2023-01-21T21:36:42.984Z,12.40
2023-01-21T21:39:12.433Z,10.30
2023-01-21T21:41:59.699Z,8.90
2023-01-21T21:44:28.418Z,9.20
2023-01-21T21:47:18.122Z,9.10
2023-01-21T21:49:46.775Z,10.70
2023-01-21T21:52:17.832Z,13.90
2023-01-21T21:54:46.637Z,10.90
2023-01-21T21:57:15.635Z,11.10
2023-01-21T21:59:44.300Z,9.20
2023-01-21T22:02:13.066Z,8.70
2023-01-21T22:04:43.935Z,10.70
2023-01-21T22:07:12.780Z,10.60
2023-01-21T22:09:41.682Z,10.30
2023-01-21T22:12:13.377Z,13.10
2023-01-21T22:14:42.013Z,11.50
2023-01-21T22:17:11.029Z,12.10
2023-01-21T22:19:39.658Z,10.60
2023-01-21T22:22:08.315Z,13.70
2023-01-21T22:24:36.811Z,15.70
2023-01-21T22:27:08.373Z,11.20
2023-01-21T22:29:36.721Z,11.80
2023-01-21T22:32:05.362Z,14.40
2023-01-21T22:34:33.560Z,10.80
2023-01-21T22:37:01.511Z,10.90
2023-01-21T22:39:31.272Z,13.10
2023-01-21T22:42:00.350Z,10.30
2023-01-21T22:44:28.496Z,13.30
2023-01-21T22:46:56.607Z,10.20
2023-01-21T22:49:24.582Z,9.70
2023-01-21T22:51:52.646Z,13.00
2023-01-21T22:54:22.116Z,9.90
2023-01-21T22:56:52.874Z,10.90
2023-01-21T22:59:22.361Z,9.20
2023-01-21T23:01:51.458Z,10.70
2023-01-21T23:04:19.860Z,11.40
2023-01-21T23:06:48.967Z,12.60
2023-01-21T23:09:20.014Z,11.20
2023-01-21T23:11:48.505Z,10.00
2023-01-21T23:14:17.642Z,13.20
2023-01-21T23:16:48.371Z,10.60
2023-01-21T23:19:16.452Z,10.00
2023-01-21T23:21:44.756Z,8.80
2023-01-21T23:24:12.787Z,9.30
2023-01-21T23:26:41.026Z,14.20
2023-01-21T23:29:10.167Z,9.00
2023-01-21T23:31:38.377Z,12.60
2023-01-21T23:34:07.221Z,10.90
2023-01-21T23:36:39.294Z,10.00
2023-01-21T23:39:07.461Z,9.40
2023-01-21T23:41:38.719Z,9.70
2023-01-21T23:44:06.766Z,13.90
2023-01-21T23:46:34.681Z,12.50
2023-01-21T23:49:02.683Z,13.50
2023-01-21T23:51:30.670Z,14.50
2023-01-21T23:53:58.711Z,15.00
2023-01-21T23:56:26.801Z,15.00
2023-01-21T23:58:54.826Z,15.60
